sensor_id;sensor_type;location;lat;lon;timestamp;P1;durP1;ratioP1;P2;durP2;ratioP2
61385;SDS011;47256;18.904;-99.054;2023-11-21T00:01:24;80.45;;;41.63;;
61385;SDS011;47256;18.904;-99.054;2023-11-21T00:03:52;66.25;;;32.60;;
61385;SDS011;47256;18.904;-99.054;2023-11-21T00:06:21;52.50;;;27.38;;
61385;SDS011;47256;18.904;-99.054;2023-11-21T00:08:49;46.40;;;29.05;;
61385;SDS011;47256;18.904;-99.054;2023-11-21T00:11:16;55.33;;;27.75;;
61385;SDS011;47256;18.904;-99.054;2023-11-21T00:13:43;45.08;;;26.65;;
61385;SDS011;47256;18.904;-99.054;2023-11-21T00:16:11;36.30;;;24.55;;
61385;SDS011;47256;18.904;-99.054;2023-11-21T00:18:39;36.65;;;24.90;;
61385;SDS011;47256;18.904;-99.054;2023-11-21T00:21:06;40.90;;;23.23;;
61385;SDS011;47256;18.904;-99.054;2023-11-21T00:23:34;46.65;;;28.30;;
61385;SDS011;47256;18.904;-99.054;2023-11-21T00:26:01;94.20;;;49.90;;
61385;SDS011;47256;18.904;-99.054;2023-11-21T00:28:30;58.00;;;33.50;;
61385;SDS011;47256;18.904;-99.054;2023-11-21T00:30:57;45.80;;;29.25;;
61385;SDS011;47256;18.904;-99.054;2023-11-21T00:33:24;35.35;;;26.55;;
61385;SDS011;47256;18.904;-99.054;2023-11-21T00:35:51;34.00;;;26.30;;
61385;SDS011;47256;18.904;-99.054;2023-11-21T00:38:20;32.95;;;25.73;;
61385;SDS011;47256;18.904;-99.054;2023-11-21T00:40:48;36.63;;;26.67;;
61385;SDS011;47256;18.904;-99.054;2023-11-21T00:43:15;41.65;;;25.73;;
61385;SDS011;47256;18.904;-99.054;2023-11-21T00:45:43;36.83;;;24.88;;
61385;SDS011;47256;18.904;-99.054;2023-11-21T00:48:12;32.58;;;23.05;;
61385;SDS011;47256;18.904;-99.054;2023-11-21T00:50:39;34.97;;;24.50;;
61385;SDS011;47256;18.904;-99.054;2023-11-21T00:53:06;37.15;;;24.92;;
61385;SDS011;47256;18.904;-99.054;2023-11-21T00:55:34;34.58;;;24.52;;
61385;SDS011;47256;18.904;-99.054;2023-11-21T00:58:02;33.38;;;22.92;;
61385;SDS011;47256;18.904;-99.054;2023-11-21T01:00:30;33.05;;;23.38;;
61385;SDS011;47256;18.904;-99.054;2023-11-21T01:02:58;36.25;;;24.80;;
61385;SDS011;47256;18.904;-99.054;2023-11-21T01:05:25;34.28;;;24.50;;
61385;SDS011;47256;18.904;-99.054;2023-11-21T01:07:54;33.78;;;23.50;;
61385;SDS011;47256;18.904;-99.054;2023-11-21T01:10:21;32.92;;;23.30;;
61385;SDS011;47256;18.904;-99.054;2023-11-21T01:12:50;40.53;;;25.45;;
61385;SDS011;47256;18.904;-99.054;2023-11-21T01:15:17;35.00;;;25.02;;
61385;SDS011;47256;18.904;-99.054;2023-11-21T01:17:44;38.88;;;26.02;;
61385;SDS011;47256;18.904;-99.054;2023-11-21T01:20:12;45.92;;;27.05;;
61385;SDS011;47256;18.904;-99.054;2023-11-21T01:22:39;42.15;;;24.92;;
61385;SDS011;47256;18.904;-99.054;2023-11-21T01:25:07;39.65;;;26.35;;
61385;SDS011;47256;18.904;-99.054;2023-11-21T01:27:34;31.40;;;24.45;;
61385;SDS011;47256;18.904;-99.054;2023-11-21T01:30:02;35.35;;;22.65;;
61385;SDS011;47256;18.904;-99.054;2023-11-21T01:32:30;40.67;;;25.00;;
61385;SDS011;47256;18.904;-99.054;2023-11-21T01:34:57;34.95;;;23.90;;
61385;SDS011;47256;18.904;-99.054;2023-11-21T01:37:26;37.28;;;23.63;;
61385;SDS011;47256;18.904;-99.054;2023-11-21T01:39:54;34.58;;;24.17;;
61385;SDS011;47256;18.904;-99.054;2023-11-21T01:42:21;40.70;;;23.50;;
61385;SDS011;47256;18.904;-99.054;2023-11-21T01:44:49;35.63;;;25.40;;
61385;SDS011;47256;18.904;-99.054;2023-11-21T01:47:17;38.28;;;23.55;;
61385;SDS011;47256;18.904;-99.054;2023-11-21T01:49:45;30.40;;;23.92;;
61385;SDS011;47256;18.904;-99.054;2023-11-21T01:52:13;35.53;;;23.70;;
61385;SDS011;47256;18.904;-99.054;2023-11-21T01:54:40;32.30;;;24.02;;
61385;SDS011;47256;18.904;-99.054;2023-11-21T01:57:08;37.70;;;28.63;;
61385;SDS011;47256;18.904;-99.054;2023-11-21T01:59:37;46.35;;;29.77;;
61385;SDS011;47256;18.904;-99.054;2023-11-21T02:02:05;39.50;;;31.05;;
61385;SDS011;47256;18.904;-99.054;2023-11-21T02:04:36;37.42;;;26.55;;
61385;SDS011;47256;18.904;-99.054;2023-11-21T02:07:04;38.88;;;28.75;;
61385;SDS011;47256;18.904;-99.054;2023-11-21T02:09:32;38.45;;;27.48;;
61385;SDS011;47256;18.904;-99.054;2023-11-21T02:12:00;38.83;;;29.77;;
61385;SDS011;47256;18.904;-99.054;2023-11-21T02:14:28;36.58;;;27.65;;
61385;SDS011;47256;18.904;-99.054;2023-11-21T02:16:57;40.10;;;27.92;;
61385;SDS011;47256;18.904;-99.054;2023-11-21T02:19:24;38.83;;;27.17;;
61385;SDS011;47256;18.904;-99.054;2023-11-21T02:21:52;33.08;;;25.50;;
61385;SDS011;47256;18.904;-99.054;2023-11-21T02:24:23;33.67;;;23.27;;
61385;SDS011;47256;18.904;-99.054;2023-11-21T02:26:50;26.40;;;22.00;;
61385;SDS011;47256;18.904;-99.054;2023-11-21T02:29:20;36.83;;;23.80;;
61385;SDS011;47256;18.904;-99.054;2023-11-21T02:31:54;35.33;;;25.92;;
61385;SDS011;47256;18.904;-99.054;2023-11-21T02:34:22;37.03;;;27.85;;
61385;SDS011;47256;18.904;-99.054;2023-11-21T02:36:50;36.50;;;25.27;;
61385;SDS011;47256;18.904;-99.054;2023-11-21T02:39:18;36.08;;;26.58;;
61385;SDS011;47256;18.904;-99.054;2023-11-21T02:41:48;36.70;;;25.33;;
61385;SDS011;47256;18.904;-99.054;2023-11-21T02:44:16;32.65;;;23.83;;
61385;SDS011;47256;18.904;-99.054;2023-11-21T02:46:44;38.13;;;23.55;;
61385;SDS011;47256;18.904;-99.054;2023-11-21T02:49:12;37.10;;;28.00;;
61385;SDS011;47256;18.904;-99.054;2023-11-21T02:51:40;38.15;;;26.08;;
61385;SDS011;47256;18.904;-99.054;2023-11-21T02:54:07;40.75;;;28.38;;
61385;SDS011;47256;18.904;-99.054;2023-11-21T02:56:35;36.42;;;27.08;;
61385;SDS011;47256;18.904;-99.054;2023-11-21T02:59:02;38.67;;;28.23;;
61385;SDS011;47256;18.904;-99.054;2023-11-21T03:01:30;37.58;;;26.98;;
61385;SDS011;47256;18.904;-99.054;2023-11-21T03:03:58;45.00;;;28.45;;
61385;SDS011;47256;18.904;-99.054;2023-11-21T03:06:26;38.47;;;24.90;;
61385;SDS011;47256;18.904;-99.054;2023-11-21T03:08:54;36.35;;;25.27;;
61385;SDS011;47256;18.904;-99.054;2023-11-21T03:11:21;30.20;;;23.80;;
61385;SDS011;47256;18.904;-99.054;2023-11-21T03:13:48;35.58;;;23.13;;
61385;SDS011;47256;18.904;-99.054;2023-11-21T03:16:16;31.95;;;23.10;;
61385;SDS011;47256;18.904;-99.054;2023-11-21T03:18:45;30.25;;;22.10;;
61385;SDS011;47256;18.904;-99.054;2023-11-21T03:21:12;36.90;;;26.45;;
61385;SDS011;47256;18.904;-99.054;2023-11-21T03:23:39;41.75;;;27.00;;
61385;SDS011;47256;18.904;-99.054;2023-11-21T03:26:11;43.15;;;27.63;;
61385;SDS011;47256;18.904;-99.054;2023-11-21T03:28:39;59.40;;;39.53;;
61385;SDS011;47256;18.904;-99.054;2023-11-21T03:31:06;50.75;;;37.22;;
61385;SDS011;47256;18.904;-99.054;2023-11-21T03:33:35;55.85;;;36.70;;
61385;SDS011;47256;18.904;-99.054;2023-11-21T03:36:03;49.92;;;31.42;;
61385;SDS011;47256;18.904;-99.054;2023-11-21T03:38:31;43.63;;;29.67;;
61385;SDS011;47256;18.904;-99.054;2023-11-21T03:40:58;46.92;;;30.02;;
61385;SDS011;47256;18.904;-99.054;2023-11-21T03:43:29;42.28;;;28.30;;
61385;SDS011;47256;18.904;-99.054;2023-11-21T03:45:57;43.67;;;30.17;;
61385;SDS011;47256;18.904;-99.054;2023-11-21T03:48:25;40.47;;;27.45;;
61385;SDS011;47256;18.904;-99.054;2023-11-21T03:50:52;42.70;;;28.23;;
61385;SDS011;47256;18.904;-99.054;2023-11-21T03:53:19;42.70;;;26.58;;
61385;SDS011;47256;18.904;-99.054;2023-11-21T03:55:46;45.13;;;30.38;;
61385;SDS011;47256;18.904;-99.054;2023-11-21T03:58:15;34.58;;;26.65;;
61385;SDS011;47256;18.904;-99.054;2023-11-21T04:00:42;57.90;;;39.72;;
61385;SDS011;47256;18.904;-99.054;2023-11-21T04:03:12;44.25;;;32.22;;
61385;SDS011;47256;18.904;-99.054;2023-11-21T04:05:40;37.92;;;29.17;;
61385;SDS011;47256;18.904;-99.054;2023-11-21T04:08:08;49.67;;;29.08;;
61385;SDS011;47256;18.904;-99.054;2023-11-21T04:10:35;42.47;;;27.80;;
61385;SDS011;47256;18.904;-99.054;2023-11-21T04:13:05;32.58;;;24.60;;
61385;SDS011;47256;18.904;-99.054;2023-11-21T04:15:32;35.67;;;26.23;;
61385;SDS011;47256;18.904;-99.054;2023-11-21T04:17:59;31.40;;;25.95;;
61385;SDS011;47256;18.904;-99.054;2023-11-21T04:20:27;35.13;;;24.50;;
61385;SDS011;47256;18.904;-99.054;2023-11-21T04:22:55;30.67;;;23.55;;
61385;SDS011;47256;18.904;-99.054;2023-11-21T04:25:22;31.20;;;23.95;;
61385;SDS011;47256;18.904;-99.054;2023-11-21T04:27:50;30.58;;;23.92;;
61385;SDS011;47256;18.904;-99.054;2023-11-21T04:30:17;37.00;;;24.13;;
61385;SDS011;47256;18.904;-99.054;2023-11-21T04:32:44;33.97;;;24.35;;
61385;SDS011;47256;18.904;-99.054;2023-11-21T04:35:11;31.75;;;23.58;;
61385;SDS011;47256;18.904;-99.054;2023-11-21T04:37:39;33.33;;;23.65;;
61385;SDS011;47256;18.904;-99.054;2023-11-21T04:40:07;32.40;;;23.33;;
61385;SDS011;47256;18.904;-99.054;2023-11-21T04:42:36;33.72;;;22.58;;
61385;SDS011;47256;18.904;-99.054;2023-11-21T04:45:04;30.45;;;22.00;;
61385;SDS011;47256;18.904;-99.054;2023-11-21T04:47:38;36.83;;;23.02;;
61385;SDS011;47256;18.904;-99.054;2023-11-21T04:50:05;30.83;;;21.17;;
61385;SDS011;47256;18.904;-99.054;2023-11-21T04:52:33;28.15;;;22.02;;
61385;SDS011;47256;18.904;-99.054;2023-11-21T04:55:00;31.83;;;23.92;;
61385;SDS011;47256;18.904;-99.054;2023-11-21T04:57:28;29.42;;;22.73;;
61385;SDS011;47256;18.904;-99.054;2023-11-21T04:59:55;32.33;;;24.02;;
61385;SDS011;47256;18.904;-99.054;2023-11-21T05:02:25;32.30;;;23.90;;
61385;SDS011;47256;18.904;-99.054;2023-11-21T05:04:52;34.90;;;22.95;;
61385;SDS011;47256;18.904;-99.054;2023-11-21T05:07:19;34.63;;;23.92;;
61385;SDS011;47256;18.904;-99.054;2023-11-21T05:09:48;29.30;;;23.52;;
61385;SDS011;47256;18.904;-99.054;2023-11-21T05:12:16;28.80;;;21.73;;
61385;SDS011;47256;18.904;-99.054;2023-11-21T05:14:43;32.20;;;23.13;;
61385;SDS011;47256;18.904;-99.054;2023-11-21T05:17:11;29.27;;;22.00;;
61385;SDS011;47256;18.904;-99.054;2023-11-21T05:19:41;31.70;;;22.30;;
61385;SDS011;47256;18.904;-99.054;2023-11-21T05:22:09;35.17;;;23.55;;
61385;SDS011;47256;18.904;-99.054;2023-11-21T05:24:38;30.90;;;23.20;;
61385;SDS011;47256;18.904;-99.054;2023-11-21T05:27:05;35.50;;;21.98;;
61385;SDS011;47256;18.904;-99.054;2023-11-21T05:29:32;33.47;;;22.50;;
61385;SDS011;47256;18.904;-99.054;2023-11-21T05:31:59;30.42;;;21.90;;
61385;SDS011;47256;18.904;-99.054;2023-11-21T05:34:26;30.60;;;21.88;;
61385;SDS011;47256;18.904;-99.054;2023-11-21T05:36:53;27.90;;;22.55;;
61385;SDS011;47256;18.904;-99.054;2023-11-21T05:39:20;31.60;;;22.02;;
61385;SDS011;47256;18.904;-99.054;2023-11-21T05:41:49;32.00;;;21.30;;
61385;SDS011;47256;18.904;-99.054;2023-11-21T05:44:18;34.95;;;22.63;;
61385;SDS011;47256;18.904;-99.054;2023-11-21T05:46:46;34.10;;;22.15;;
61385;SDS011;47256;18.904;-99.054;2023-11-21T05:49:14;30.33;;;22.38;;
61385;SDS011;47256;18.904;-99.054;2023-11-21T05:51:41;33.15;;;23.67;;
61385;SDS011;47256;18.904;-99.054;2023-11-21T05:54:10;32.53;;;23.17;;
61385;SDS011;47256;18.904;-99.054;2023-11-21T05:56:37;31.20;;;23.15;;
61385;SDS011;47256;18.904;-99.054;2023-11-21T05:59:04;30.45;;;22.80;;
61385;SDS011;47256;18.904;-99.054;2023-11-21T06:01:32;28.05;;;22.25;;
61385;SDS011;47256;18.904;-99.054;2023-11-21T06:04:01;32.67;;;23.40;;
61385;SDS011;47256;18.904;-99.054;2023-11-21T06:06:30;32.40;;;23.17;;
61385;SDS011;47256;18.904;-99.054;2023-11-21T06:08:57;31.23;;;22.73;;
61385;SDS011;47256;18.904;-99.054;2023-11-21T06:11:24;37.50;;;22.95;;
61385;SDS011;47256;18.904;-99.054;2023-11-21T06:13:52;32.15;;;23.83;;
61385;SDS011;47256;18.904;-99.054;2023-11-21T06:16:21;34.28;;;23.33;;
61385;SDS011;47256;18.904;-99.054;2023-11-21T06:18:49;29.20;;;23.00;;
61385;SDS011;47256;18.904;-99.054;2023-11-21T06:21:16;28.88;;;21.50;;
61385;SDS011;47256;18.904;-99.054;2023-11-21T06:23:44;32.03;;;24.20;;
61385;SDS011;47256;18.904;-99.054;2023-11-21T06:26:11;35.83;;;23.90;;
61385;SDS011;47256;18.904;-99.054;2023-11-21T06:28:40;34.42;;;24.65;;
61385;SDS011;47256;18.904;-99.054;2023-11-21T06:31:08;33.25;;;22.55;;
61385;SDS011;47256;18.904;-99.054;2023-11-21T06:33:36;27.98;;;22.67;;
61385;SDS011;47256;18.904;-99.054;2023-11-21T06:36:04;29.90;;;21.45;;
61385;SDS011;47256;18.904;-99.054;2023-11-21T06:38:32;31.42;;;22.55;;
61385;SDS011;47256;18.904;-99.054;2023-11-21T06:40:59;27.80;;;19.95;;
61385;SDS011;47256;18.904;-99.054;2023-11-21T06:43:30;32.40;;;21.33;;
61385;SDS011;47256;18.904;-99.054;2023-11-21T06:45:58;28.67;;;21.23;;
61385;SDS011;47256;18.904;-99.054;2023-11-21T06:48:26;29.98;;;20.75;;
61385;SDS011;47256;18.904;-99.054;2023-11-21T06:50:53;27.15;;;21.67;;
61385;SDS011;47256;18.904;-99.054;2023-11-21T06:53:20;30.00;;;19.65;;
61385;SDS011;47256;18.904;-99.054;2023-11-21T06:55:48;36.70;;;23.42;;
61385;SDS011;47256;18.904;-99.054;2023-11-21T06:58:16;37.40;;;22.85;;
61385;SDS011;47256;18.904;-99.054;2023-11-21T07:00:44;35.67;;;26.15;;
61385;SDS011;47256;18.904;-99.054;2023-11-21T07:03:14;30.45;;;21.85;;
61385;SDS011;47256;18.904;-99.054;2023-11-21T07:05:41;37.92;;;22.60;;
61385;SDS011;47256;18.904;-99.054;2023-11-21T07:08:09;36.45;;;23.42;;
61385;SDS011;47256;18.904;-99.054;2023-11-21T07:10:36;36.05;;;24.02;;
61385;SDS011;47256;18.904;-99.054;2023-11-21T07:13:04;34.65;;;23.35;;
61385;SDS011;47256;18.904;-99.054;2023-11-21T07:15:31;34.88;;;23.83;;
61385;SDS011;47256;18.904;-99.054;2023-11-21T07:17:58;38.25;;;22.92;;
61385;SDS011;47256;18.904;-99.054;2023-11-21T07:20:26;34.97;;;23.27;;
61385;SDS011;47256;18.904;-99.054;2023-11-21T07:22:56;45.17;;;25.35;;
61385;SDS011;47256;18.904;-99.054;2023-11-21T07:25:23;36.67;;;21.65;;
61385;SDS011;47256;18.904;-99.054;2023-11-21T07:27:51;35.55;;;23.55;;
61385;SDS011;47256;18.904;-99.054;2023-11-21T07:30:20;31.33;;;22.83;;
61385;SDS011;47256;18.904;-99.054;2023-11-21T07:32:49;30.58;;;22.27;;
61385;SDS011;47256;18.904;-99.054;2023-11-21T07:35:17;30.63;;;21.58;;
61385;SDS011;47256;18.904;-99.054;2023-11-21T07:37:44;31.67;;;22.08;;
61385;SDS011;47256;18.904;-99.054;2023-11-21T07:40:13;35.78;;;22.20;;
61385;SDS011;47256;18.904;-99.054;2023-11-21T07:42:41;26.88;;;21.10;;
61385;SDS011;47256;18.904;-99.054;2023-11-21T07:45:09;34.10;;;21.33;;
61385;SDS011;47256;18.904;-99.054;2023-11-21T07:47:38;31.65;;;21.45;;
61385;SDS011;47256;18.904;-99.054;2023-11-21T07:50:05;33.47;;;19.98;;
61385;SDS011;47256;18.904;-99.054;2023-11-21T07:52:33;29.73;;;21.17;;
61385;SDS011;47256;18.904;-99.054;2023-11-21T07:55:00;25.25;;;19.30;;
61385;SDS011;47256;18.904;-99.054;2023-11-21T07:57:28;28.23;;;20.75;;
61385;SDS011;47256;18.904;-99.054;2023-11-21T07:59:55;33.40;;;20.73;;
61385;SDS011;47256;18.904;-99.054;2023-11-21T08:02:24;29.45;;;21.33;;
61385;SDS011;47256;18.904;-99.054;2023-11-21T08:04:53;27.13;;;20.02;;
61385;SDS011;47256;18.904;-99.054;2023-11-21T08:07:23;21.80;;;18.52;;
61385;SDS011;47256;18.904;-99.054;2023-11-21T08:09:50;26.30;;;18.17;;
61385;SDS011;47256;18.904;-99.054;2023-11-21T08:12:18;24.83;;;18.92;;
61385;SDS011;47256;18.904;-99.054;2023-11-21T08:14:46;26.67;;;20.02;;
61385;SDS011;47256;18.904;-99.054;2023-11-21T08:17:14;26.80;;;20.13;;
61385;SDS011;47256;18.904;-99.054;2023-11-21T08:19:41;24.00;;;19.17;;
61385;SDS011;47256;18.904;-99.054;2023-11-21T08:22:08;30.33;;;18.35;;
61385;SDS011;47256;18.904;-99.054;2023-11-21T08:24:35;23.27;;;18.80;;
61385;SDS011;47256;18.904;-99.054;2023-11-21T08:27:03;25.40;;;18.73;;
61385;SDS011;47256;18.904;-99.054;2023-11-21T08:29:30;25.67;;;17.70;;
61385;SDS011;47256;18.904;-99.054;2023-11-21T08:31:58;26.17;;;18.63;;
61385;SDS011;47256;18.904;-99.054;2023-11-21T08:34:25;24.13;;;18.27;;
61385;SDS011;47256;18.904;-99.054;2023-11-21T08:36:54;25.27;;;18.85;;
61385;SDS011;47256;18.904;-99.054;2023-11-21T08:39:23;21.20;;;16.65;;
61385;SDS011;47256;18.904;-99.054;2023-11-21T08:41:50;24.67;;;18.02;;
61385;SDS011;47256;18.904;-99.054;2023-11-21T08:44:19;23.75;;;17.17;;
61385;SDS011;47256;18.904;-99.054;2023-11-21T08:46:49;23.73;;;18.15;;
61385;SDS011;47256;18.904;-99.054;2023-11-21T08:49:17;21.08;;;17.23;;
61385;SDS011;47256;18.904;-99.054;2023-11-21T08:51:44;25.20;;;17.95;;
61385;SDS011;47256;18.904;-99.054;2023-11-21T08:54:11;19.50;;;16.13;;
61385;SDS011;47256;18.904;-99.054;2023-11-21T08:56:38;25.67;;;18.17;;
61385;SDS011;47256;18.904;-99.054;2023-11-21T08:59:06;27.52;;;17.60;;
61385;SDS011;47256;18.904;-99.054;2023-11-21T09:01:33;24.13;;;17.80;;
61385;SDS011;47256;18.904;-99.054;2023-11-21T09:04:01;28.23;;;17.88;;
61385;SDS011;47256;18.904;-99.054;2023-11-21T09:06:29;21.85;;;17.33;;
61385;SDS011;47256;18.904;-99.054;2023-11-21T09:08:56;23.40;;;16.83;;
61385;SDS011;47256;18.904;-99.054;2023-11-21T09:11:24;23.50;;;16.60;;
61385;SDS011;47256;18.904;-99.054;2023-11-21T09:13:58;22.60;;;16.08;;
61385;SDS011;47256;18.904;-99.054;2023-11-21T09:16:25;28.88;;;18.15;;
61385;SDS011;47256;18.904;-99.054;2023-11-21T09:18:53;23.02;;;17.27;;
61385;SDS011;47256;18.904;-99.054;2023-11-21T09:21:20;28.48;;;17.35;;
61385;SDS011;47256;18.904;-99.054;2023-11-21T09:23:48;20.65;;;16.40;;
61385;SDS011;47256;18.904;-99.054;2023-11-21T09:26:15;24.58;;;18.45;;
61385;SDS011;47256;18.904;-99.054;2023-11-21T09:28:43;20.23;;;16.38;;
61385;SDS011;47256;18.904;-99.054;2023-11-21T09:31:13;22.77;;;16.65;;
61385;SDS011;47256;18.904;-99.054;2023-11-21T09:33:44;25.38;;;16.90;;
61385;SDS011;47256;18.904;-99.054;2023-11-21T09:36:14;22.83;;;17.02;;
61385;SDS011;47256;18.904;-99.054;2023-11-21T09:38:41;26.65;;;18.40;;
61385;SDS011;47256;18.904;-99.054;2023-11-21T09:41:20;23.75;;;16.90;;
61385;SDS011;47256;18.904;-99.054;2023-11-21T09:43:53;24.33;;;17.85;;
61385;SDS011;47256;18.904;-99.054;2023-11-21T09:46:27;26.30;;;17.40;;
61385;SDS011;47256;18.904;-99.054;2023-11-21T09:48:55;29.88;;;17.58;;
61385;SDS011;47256;18.904;-99.054;2023-11-21T09:51:27;20.55;;;17.17;;
61385;SDS011;47256;18.904;-99.054;2023-11-21T09:53:59;23.17;;;17.33;;
61385;SDS011;47256;18.904;-99.054;2023-11-21T09:56:27;24.98;;;18.83;;
61385;SDS011;47256;18.904;-99.054;2023-11-21T09:58:56;25.63;;;18.88;;
61385;SDS011;47256;18.904;-99.054;2023-11-21T10:01:24;25.15;;;18.65;;
61385;SDS011;47256;18.904;-99.054;2023-11-21T10:03:53;24.95;;;16.90;;
61385;SDS011;47256;18.904;-99.054;2023-11-21T10:06:23;26.00;;;18.67;;
61385;SDS011;47256;18.904;-99.054;2023-11-21T10:08:53;25.98;;;17.52;;
61385;SDS011;47256;18.904;-99.054;2023-11-21T10:11:25;25.20;;;18.48;;
61385;SDS011;47256;18.904;-99.054;2023-11-21T10:13:54;25.13;;;18.48;;
61385;SDS011;47256;18.904;-99.054;2023-11-21T10:16:23;28.70;;;18.67;;
61385;SDS011;47256;18.904;-99.054;2023-11-21T10:18:53;28.58;;;21.08;;
61385;SDS011;47256;18.904;-99.054;2023-11-21T10:21:22;27.25;;;19.27;;
61385;SDS011;47256;18.904;-99.054;2023-11-21T10:23:50;30.83;;;20.17;;
61385;SDS011;47256;18.904;-99.054;2023-11-21T10:26:19;30.95;;;19.75;;
61385;SDS011;47256;18.904;-99.054;2023-11-21T10:28:58;26.27;;;19.38;;
61385;SDS011;47256;18.904;-99.054;2023-11-21T10:31:27;31.17;;;19.55;;
61385;SDS011;47256;18.904;-99.054;2023-11-21T10:36:42;28.67;;;18.77;;
61385;SDS011;47256;18.904;-99.054;2023-11-21T10:39:19;29.58;;;18.73;;
61385;SDS011;47256;18.904;-99.054;2023-11-21T10:41:49;22.63;;;17.70;;
61385;SDS011;47256;18.904;-99.054;2023-11-21T10:44:19;26.33;;;18.63;;
61385;SDS011;47256;18.904;-99.054;2023-11-21T10:46:51;23.45;;;17.67;;
61385;SDS011;47256;18.904;-99.054;2023-11-21T10:49:26;24.98;;;18.60;;
61385;SDS011;47256;18.904;-99.054;2023-11-21T10:51:54;26.90;;;17.63;;
61385;SDS011;47256;18.904;-99.054;2023-11-21T10:54:23;24.33;;;16.77;;
61385;SDS011;47256;18.904;-99.054;2023-11-21T10:56:58;27.67;;;18.67;;
61385;SDS011;47256;18.904;-99.054;2023-11-21T10:59:28;23.23;;;18.17;;
61385;SDS011;47256;18.904;-99.054;2023-11-21T11:01:57;25.83;;;18.35;;
61385;SDS011;47256;18.904;-99.054;2023-11-21T11:04:27;27.23;;;17.35;;
61385;SDS011;47256;18.904;-99.054;2023-11-21T11:07:00;29.35;;;17.70;;
61385;SDS011;47256;18.904;-99.054;2023-11-21T11:09:29;27.63;;;18.42;;
61385;SDS011;47256;18.904;-99.054;2023-11-21T11:12:02;27.50;;;16.73;;
61385;SDS011;47256;18.904;-99.054;2023-11-21T11:14:32;25.70;;;17.70;;
61385;SDS011;47256;18.904;-99.054;2023-11-21T11:17:00;24.17;;;17.08;;
61385;SDS011;47256;18.904;-99.054;2023-11-21T11:19:28;27.65;;;18.05;;
61385;SDS011;47256;18.904;-99.054;2023-11-21T11:27:44;24.92;;;18.10;;
61385;SDS011;47256;18.904;-99.054;2023-11-21T11:31:04;28.02;;;17.38;;
61385;SDS011;47256;18.904;-99.054;2023-11-21T11:36:49;25.52;;;16.65;;
61385;SDS011;47256;18.904;-99.054;2023-11-21T11:39:42;28.63;;;17.73;;
61385;SDS011;47256;18.904;-99.054;2023-11-21T11:42:15;41.63;;;18.57;;
61385;SDS011;47256;18.904;-99.054;2023-11-21T11:44:47;26.38;;;17.65;;
61385;SDS011;47256;18.904;-99.054;2023-11-21T11:49:57;23.17;;;16.75;;
61385;SDS011;47256;18.904;-99.054;2023-11-21T11:52:52;26.05;;;18.50;;
61385;SDS011;47256;18.904;-99.054;2023-11-21T11:55:24;24.02;;;16.48;;
61385;SDS011;47256;18.904;-99.054;2023-11-21T11:57:53;25.02;;;16.48;;
61385;SDS011;47256;18.904;-99.054;2023-11-21T12:02:57;22.60;;;17.73;;
61385;SDS011;47256;18.904;-99.054;2023-11-21T12:05:54;21.98;;;16.77;;
61385;SDS011;47256;18.904;-99.054;2023-11-21T12:08:24;23.08;;;15.93;;
61385;SDS011;47256;18.904;-99.054;2023-11-21T12:10:58;26.23;;;17.65;;
61385;SDS011;47256;18.904;-99.054;2023-11-21T12:13:28;36.08;;;21.33;;
61385;SDS011;47256;18.904;-99.054;2023-11-21T12:15:55;25.88;;;18.25;;
61385;SDS011;47256;18.904;-99.054;2023-11-21T12:18:22;29.88;;;18.83;;
61385;SDS011;47256;18.904;-99.054;2023-11-21T12:20:52;26.42;;;18.13;;
61385;SDS011;47256;18.904;-99.054;2023-11-21T12:23:19;34.20;;;20.80;;
61385;SDS011;47256;18.904;-99.054;2023-11-21T12:25:47;31.83;;;21.60;;
61385;SDS011;47256;18.904;-99.054;2023-11-21T12:28:14;38.83;;;23.30;;
61385;SDS011;47256;18.904;-99.054;2023-11-21T12:30:42;42.03;;;22.58;;
61385;SDS011;47256;18.904;-99.054;2023-11-21T12:33:09;35.30;;;18.60;;
61385;SDS011;47256;18.904;-99.054;2023-11-21T12:35:39;30.13;;;20.02;;
61385;SDS011;47256;18.904;-99.054;2023-11-21T12:38:07;28.75;;;18.92;;
61385;SDS011;47256;18.904;-99.054;2023-11-21T12:40:36;28.35;;;20.23;;
61385;SDS011;47256;18.904;-99.054;2023-11-21T12:43:04;39.50;;;22.30;;
61385;SDS011;47256;18.904;-99.054;2023-11-21T12:45:34;36.42;;;24.23;;
61385;SDS011;47256;18.904;-99.054;2023-11-21T12:48:04;45.42;;;34.53;;
61385;SDS011;47256;18.904;-99.054;2023-11-21T12:50:39;46.35;;;29.10;;
61385;SDS011;47256;18.904;-99.054;2023-11-21T12:53:07;46.75;;;30.13;;
61385;SDS011;47256;18.904;-99.054;2023-11-21T12:55:38;40.97;;;29.08;;
61385;SDS011;47256;18.904;-99.054;2023-11-21T12:58:08;30.23;;;22.63;;
61385;SDS011;47256;18.904;-99.054;2023-11-21T13:03:09;34.90;;;21.95;;
61385;SDS011;47256;18.904;-99.054;2023-11-21T13:05:41;32.22;;;22.27;;
61385;SDS011;47256;18.904;-99.054;2023-11-21T13:08:11;43.70;;;22.42;;
61385;SDS011;47256;18.904;-99.054;2023-11-21T13:10:43;38.85;;;22.23;;
61385;SDS011;47256;18.904;-99.054;2023-11-21T13:13:13;38.42;;;19.40;;
61385;SDS011;47256;18.904;-99.054;2023-11-21T13:15:52;31.02;;;19.40;;
61385;SDS011;47256;18.904;-99.054;2023-11-21T13:18:24;27.15;;;18.60;;
61385;SDS011;47256;18.904;-99.054;2023-11-21T13:20:58;40.65;;;16.27;;
61385;SDS011;47256;18.904;-99.054;2023-11-21T13:23:26;26.85;;;16.45;;
61385;SDS011;47256;18.904;-99.054;2023-11-21T13:25:55;32.15;;;17.35;;
61385;SDS011;47256;18.904;-99.054;2023-11-21T13:28:24;30.63;;;17.42;;
61385;SDS011;47256;18.904;-99.054;2023-11-21T13:30:58;28.85;;;17.55;;
61385;SDS011;47256;18.904;-99.054;2023-11-21T13:33:29;29.85;;;17.73;;
61385;SDS011;47256;18.904;-99.054;2023-11-21T13:36:02;25.45;;;18.58;;
61385;SDS011;47256;18.904;-99.054;2023-11-21T13:38:33;33.60;;;18.83;;
61385;SDS011;47256;18.904;-99.054;2023-11-21T13:41:03;30.10;;;18.42;;
61385;SDS011;47256;18.904;-99.054;2023-11-21T13:43:33;32.60;;;18.95;;
61385;SDS011;47256;18.904;-99.054;2023-11-21T13:46:01;80.45;;;27.42;;
61385;SDS011;47256;18.904;-99.054;2023-11-21T13:48:39;47.05;;;23.20;;
61385;SDS011;47256;18.904;-99.054;2023-11-21T13:51:09;104.88;;;33.85;;
61385;SDS011;47256;18.904;-99.054;2023-11-21T13:53:47;54.75;;;25.42;;
61385;SDS011;47256;18.904;-99.054;2023-11-21T13:56:19;32.90;;;21.58;;
61385;SDS011;47256;18.904;-99.054;2023-11-21T13:58:50;32.97;;;21.42;;
61385;SDS011;47256;18.904;-99.054;2023-11-21T14:01:18;32.75;;;21.48;;
61385;SDS011;47256;18.904;-99.054;2023-11-21T14:04:00;40.80;;;21.95;;
61385;SDS011;47256;18.904;-99.054;2023-11-21T14:06:46;31.90;;;21.48;;
61385;SDS011;47256;18.904;-99.054;2023-11-21T14:09:15;59.35;;;26.40;;
61385;SDS011;47256;18.904;-99.054;2023-11-21T14:11:51;45.20;;;22.67;;
61385;SDS011;47256;18.904;-99.054;2023-11-21T14:14:19;34.13;;;22.00;;
61385;SDS011;47256;18.904;-99.054;2023-11-21T14:16:48;29.60;;;20.65;;
61385;SDS011;47256;18.904;-99.054;2023-11-21T14:19:16;34.90;;;22.73;;
61385;SDS011;47256;18.904;-99.054;2023-11-21T14:21:44;28.70;;;21.50;;
61385;SDS011;47256;18.904;-99.054;2023-11-21T14:24:12;61.75;;;24.23;;
61385;SDS011;47256;18.904;-99.054;2023-11-21T14:26:41;62.00;;;25.65;;